KJOT/JOT METAR and TAF weather

Enter ICAO airport designator
Station Type Date Time Source
KJOT METAR 2019/12/06 01:55 UTC NOAA

KJOT 060155Z AUTO 17003KT 10SM CLR 05/03 A2994 RMK AO2 T00500027


Station Type Date Time Source
KJOT Decoded METAR 2019/12/06 01:55 UTC NOAA

Joliet, Joliet Regional Airport, IL, United States (KJOT) 41-31-05N 088-10-31W
Dec 05, 2019 - 08:55 PM EST / 2019.12.06 0155 UTC
Wind: from the S (170 degrees) at 3 MPH (3 KT):0
Visibility: 10 mile(s):0
Sky conditions: clear
Temperature: 41.0 F (5.0 C)
Dew Point: 36.9 F (2.7 C)
Relative Humidity: 85%
Pressure (altimeter): 29.94 in. Hg (1013 hPa)
ob: KJOT 060155Z AUTO 17003KT 10SM CLR 05/03 A2994 RMK AO2 T00500027
cycle: 2

Station Type Date Time Source
KJOT TAF UTC NOAA

Error!

Example: see airport list